Time;durP1;ratioP1;P1;durP2;ratioP2;P2;SDS_P1;SDS_P2;PMS_P1;PMS_P2;Temp;Humidity;BMP_temperature;BMP_pressure;BME280_temperature;BME280_humidity;BME280_pressure;Samples;Min_cycle;Max_cycle;Signal;HPM_P1;HPM_P2
2022/10/09 00:01:26;;;;;;;;;;;29.10;99.90;;;;;;5044415;22;20365;-54
2022/10/09 00:03:53;;;;;;;;;;;29.00;99.90;;;;;;5031595;28;19909;-55
2022/10/09 00:06:20;;;;;;;;;;;29.00;99.90;;;;;;5031927;28;19908;-54
2022/10/09 00:08:46;;;;;;;;;;;29.00;99.90;;;;;;5031449;28;19996;-53
2022/10/09 00:11:14;;;;;;;;;;;29.00;99.90;;;;;;5032769;28;20009;-54
2022/10/09 00:13:39;;;;;;;;;;;29.00;99.90;;;;;;5035801;28;19913;-54
2022/10/09 00:16:06;;;;;;;;;;;29.00;99.90;;;;;;5034276;28;20287;-54
2022/10/09 00:18:32;;;;;;;;;;;29.00;99.90;;;;;;5035798;28;19971;-54
2022/10/09 00:20:58;;;;;;;;;;;29.00;99.90;;;;;;5034270;28;19913;-54
2022/10/09 00:23:23;;;;;;;;;;;28.90;99.90;;;;;;5035591;28;19905;-54
2022/10/09 00:25:50;;;;;;;;;;;28.90;99.90;;;;;;5035512;28;20245;-55
2022/10/09 00:28:16;;;;;;;;;;;28.90;99.90;;;;;;5035409;28;19992;-54
2022/10/09 00:30:41;;;;;;;;;;;28.90;99.90;;;;;;5035338;28;20368;-55
2022/10/09 00:33:07;;;;;;;;;;;28.90;99.90;;;;;;5035310;28;19916;-54
2022/10/09 00:35:32;;;;;;;;;;;28.90;99.90;;;;;;5035624;28;19905;-54
2022/10/09 00:37:58;;;;;;;;;;;28.90;99.90;;;;;;5035324;28;19905;-53
2022/10/09 00:40:23;;;;;;;;;;;28.90;99.90;;;;;;5035159;28;19909;-54
2022/10/09 00:42:54;;;;;;;;;;;28.90;99.90;;;;;;5035093;28;19911;-53
2022/10/09 00:45:20;;;;;;;;;;;28.90;99.90;;;;;;5035121;28;19908;-54
2022/10/09 00:47:50;;;;;;;;;;;28.90;99.90;;;;;;5035289;28;19905;-54
2022/10/09 00:50:16;;;;;;;;;;;28.90;99.90;;;;;;5034854;28;19909;-56
2022/10/09 00:52:42;;;;;;;;;;;28.80;99.90;;;;;;5035153;28;19909;-54
2022/10/09 00:55:08;;;;;;;;;;;28.80;99.90;;;;;;5035025;28;19964;-54
2022/10/09 00:57:35;;;;;;;;;;;28.80;99.90;;;;;;5034969;28;19945;-54
2022/10/09 01:00:04;;;;;;;;;;;28.80;99.90;;;;;;5047220;22;19943;-57
2022/10/09 01:02:29;;;;;;;;;;;28.80;99.90;;;;;;5034847;28;20015;-56
2022/10/09 01:04:55;;;;;;;;;;;28.80;99.90;;;;;;5034771;28;20005;-56
2022/10/09 01:07:20;;;;;;;;;;;28.80;99.90;;;;;;5035013;28;19988;-56
2022/10/09 01:09:52;;;;;;;;;;;28.80;99.90;;;;;;5034758;28;19905;-56
2022/10/09 01:12:23;;;;;;;;;;;28.80;99.90;;;;;;5034593;28;20277;-57
2022/10/09 01:15:01;;;;;;;;;;;28.80;99.90;;;;;;5034692;28;19912;-57
2022/10/09 01:17:36;;;;;;;;;;;28.70;99.90;;;;;;5034671;28;19912;-58
2022/10/09 01:20:05;;;;;;;;;;;28.70;99.90;;;;;;5034644;28;19969;-58
2022/10/09 01:22:58;;;;;;;;;;;28.70;99.90;;;;;;5033448;28;19936;-57
2022/10/09 01:25:34;;;;;;;;;;;28.70;99.90;;;;;;5034649;28;19928;-56
2022/10/09 01:28:01;;;;;;;;;;;28.70;99.90;;;;;;5034473;28;19905;-57
2022/10/09 01:30:27;;;;;;;;;;;28.70;99.90;;;;;;5034276;28;20051;-57
2022/10/09 01:32:53;;;;;;;;;;;28.70;99.90;;;;;;5034478;28;19905;-57
2022/10/09 01:35:20;;;;;;;;;;;28.70;99.90;;;;;;5034279;28;19932;-57
2022/10/09 01:37:46;;;;;;;;;;;28.60;99.90;;;;;;5034234;28;19927;-58
2022/10/09 01:40:13;;;;;;;;;;;28.60;99.90;;;;;;5032888;28;19948;-57
2022/10/09 01:42:39;;;;;;;;;;;28.60;99.90;;;;;;5034230;28;19905;-58
2022/10/09 01:45:05;;;;;;;;;;;28.60;99.90;;;;;;5034223;28;19905;-57
2022/10/09 01:47:30;;;;;;;;;;;28.60;99.90;;;;;;5034041;28;20313;-58
2022/10/09 01:50:18;;;;;;;;;;;28.60;99.90;;;;;;5034038;28;19959;-58
2022/10/09 01:52:56;;;;;;;;;;;28.60;99.90;;;;;;5033980;28;20400;-57
2022/10/09 01:55:25;;;;;;;;;;;28.60;99.90;;;;;;5033905;28;19911;-58
2022/10/09 01:57:54;;;;;;;;;;;28.60;99.90;;;;;;5033804;28;20312;-59
2022/10/09 02:00:20;;;;;;;;;;;28.60;99.90;;;;;;5034139;28;19928;-59
2022/10/09 02:02:47;;;;;;;;;;;28.60;99.90;;;;;;5033721;28;19927;-57
2022/10/09 02:05:16;;;;;;;;;;;28.60;99.90;;;;;;5033688;28;19905;-58
2022/10/09 02:07:42;;;;;;;;;;;28.50;99.90;;;;;;5033650;28;19905;-59
2022/10/09 02:10:08;;;;;;;;;;;28.50;99.90;;;;;;5033878;28;19911;-58
2022/10/09 02:12:39;;;;;;;;;;;28.50;99.90;;;;;;5033477;28;19919;-58
2022/10/09 02:15:05;;;;;;;;;;;28.50;99.90;;;;;;5033507;28;19909;-58
2022/10/09 02:17:33;;;;;;;;;;;28.50;99.90;;;;;;5033489;28;19960;-58
2022/10/09 02:20:07;;;;;;;;;;;28.50;99.90;;;;;;5033425;28;19912;-58
2022/10/09 02:22:34;;;;;;;;;;;28.50;99.90;;;;;;5033370;28;20297;-58
2022/10/09 02:25:01;;;;;;;;;;;28.50;99.90;;;;;;5033294;28;19905;-61
2022/10/09 02:27:27;;;;;;;;;;;28.50;99.90;;;;;;5033284;28;19938;-59
2022/10/09 02:29:53;;;;;;;;;;;28.50;99.90;;;;;;5033234;28;19942;-59
2022/10/09 02:32:19;;;;;;;;;;;28.40;99.90;;;;;;5033042;28;19913;-60
2022/10/09 02:34:45;;;;;;;;;;;28.40;99.90;;;;;;5032887;28;20254;-59
2022/10/09 02:37:10;;;;;;;;;;;28.40;99.90;;;;;;5033390;28;19979;-58
2022/10/09 02:39:36;;;;;;;;;;;28.40;99.90;;;;;;5032937;28;19993;-59
2022/10/09 02:42:02;;;;;;;;;;;28.40;99.90;;;;;;5033120;28;19916;-59
2022/10/09 02:44:28;;;;;;;;;;;28.40;99.90;;;;;;5032705;28;19905;-59
2022/10/09 02:46:54;;;;;;;;;;;28.40;99.90;;;;;;5032954;28;19905;-59
2022/10/09 02:49:20;;;;;;;;;;;28.40;99.90;;;;;;5032946;28;19951;-59
2022/10/09 02:51:46;;;;;;;;;;;28.30;99.90;;;;;;5031435;28;19963;-58
2022/10/09 02:54:11;;;;;;;;;;;28.30;99.90;;;;;;5032997;28;19948;-57
2022/10/09 02:56:37;;;;;;;;;;;28.30;99.90;;;;;;5032816;28;19905;-56
2022/10/09 02:59:03;;;;;;;;;;;28.30;99.90;;;;;;5032773;28;20377;-57
2022/10/09 03:01:28;;;;;;;;;;;28.30;99.90;;;;;;5033110;28;20063;-57
2022/10/09 03:03:54;;;;;;;;;;;28.30;99.90;;;;;;5032443;28;19978;-57
2022/10/09 03:06:21;;;;;;;;;;;28.30;99.90;;;;;;5032480;28;19905;-57
2022/10/09 03:08:47;;;;;;;;;;;28.30;99.90;;;;;;5032598;28;20327;-57
2022/10/09 03:11:15;;;;;;;;;;;28.20;99.90;;;;;;5032636;28;19913;-57
2022/10/09 03:13:41;;;;;;;;;;;28.20;99.90;;;;;;5033160;28;20276;-57
2022/10/09 03:16:08;;;;;;;;;;;28.20;99.90;;;;;;5032444;28;19905;-57
2022/10/09 03:18:34;;;;;;;;;;;28.20;99.90;;;;;;5032399;28;19909;-57
2022/10/09 03:21:03;;;;;;;;;;;28.20;99.90;;;;;;5032345;28;19915;-58
2022/10/09 03:23:29;;;;;;;;;;;28.20;99.90;;;;;;5032358;28;20069;-60
2022/10/09 03:25:56;;;;;;;;;;;28.20;99.90;;;;;;5032464;28;19948;-61
2022/10/09 03:28:21;;;;;;;;;;;28.20;99.90;;;;;;5032155;28;20288;-59
2022/10/09 03:30:47;;;;;;;;;;;28.20;99.90;;;;;;5032146;28;19913;-58
2022/10/09 03:33:13;;;;;;;;;;;28.10;99.90;;;;;;5032357;28;19905;-58
2022/10/09 03:35:39;;;;;;;;;;;28.10;99.90;;;;;;5032024;28;19956;-59
2022/10/09 03:38:05;;;;;;;;;;;28.10;99.90;;;;;;5032088;28;19964;-58
2022/10/09 03:40:30;;;;;;;;;;;28.10;99.90;;;;;;5032081;28;19971;-59
2022/10/09 03:42:56;;;;;;;;;;;28.10;99.90;;;;;;5032049;28;20322;-59
2022/10/09 03:45:21;;;;;;;;;;;28.10;99.90;;;;;;5031547;28;19912;-59
2022/10/09 03:47:47;;;;;;;;;;;28.10;99.90;;;;;;5031744;28;20404;-60
2022/10/09 03:50:13;;;;;;;;;;;28.10;99.90;;;;;;5032046;28;19905;-57
2022/10/09 03:52:39;;;;;;;;;;;28.00;99.90;;;;;;5031890;28;20066;-61
2022/10/09 03:55:06;;;;;;;;;;;28.10;99.90;;;;;;5031672;28;19909;-60
2022/10/09 03:57:31;;;;;;;;;;;28.00;99.90;;;;;;5030403;28;20390;-62
2022/10/09 03:59:57;;;;;;;;;;;28.10;99.90;;;;;;5032199;28;19960;-60
2022/10/09 04:02:22;;;;;;;;;;;28.00;99.90;;;;;;5032213;28;19905;-60
2022/10/09 04:04:48;;;;;;;;;;;28.00;99.90;;;;;;5031793;28;20368;-61
2022/10/09 04:07:13;;;;;;;;;;;28.00;99.90;;;;;;5032012;28;19905;-60
2022/10/09 04:09:39;;;;;;;;;;;28.00;99.90;;;;;;5031748;28;19909;-59
2022/10/09 04:12:05;;;;;;;;;;;28.00;99.90;;;;;;5031700;28;19920;-59
2022/10/09 04:14:30;;;;;;;;;;;28.00;99.90;;;;;;5031786;28;19912;-59
2022/10/09 04:16:56;;;;;;;;;;;28.00;99.90;;;;;;5030442;28;19953;-59
2022/10/09 04:19:21;;;;;;;;;;;28.00;99.90;;;;;;5031714;28;20279;-58
2022/10/09 04:21:47;;;;;;;;;;;27.90;99.90;;;;;;5031728;28;19905;-58
2022/10/09 04:24:12;;;;;;;;;;;27.90;99.90;;;;;;5031743;28;19901;-58
2022/10/09 04:26:38;;;;;;;;;;;28.00;99.90;;;;;;5031648;28;19958;-57
2022/10/09 04:29:04;;;;;;;;;;;27.90;99.90;;;;;;5031633;28;19906;-58
2022/10/09 04:31:29;;;;;;;;;;;27.90;99.90;;;;;;5031610;28;19927;-58
2022/10/09 04:33:55;;;;;;;;;;;27.90;99.90;;;;;;5031588;28;19905;-58
2022/10/09 04:36:20;;;;;;;;;;;27.90;99.90;;;;;;5031466;28;19912;-58
2022/10/09 04:38:46;;;;;;;;;;;27.90;99.90;;;;;;5031624;28;19905;-58
2022/10/09 04:41:12;;;;;;;;;;;27.90;99.90;;;;;;5031395;28;19905;-58
2022/10/09 04:43:37;;;;;;;;;;;27.90;99.90;;;;;;5031436;28;19905;-59
2022/10/09 04:46:07;;;;;;;;;;;27.90;99.90;;;;;;5031460;28;19905;-59
2022/10/09 04:48:39;;;;;;;;;;;27.90;99.90;;;;;;5031571;28;20352;-58
2022/10/09 04:51:05;;;;;;;;;;;27.90;99.90;;;;;;5031349;28;20285;-58
2022/10/09 04:53:31;;;;;;;;;;;27.90;99.90;;;;;;5031256;28;19905;-59
2022/10/09 04:55:57;;;;;;;;;;;27.80;99.90;;;;;;5031221;28;19907;-58
2022/10/09 04:58:23;;;;;;;;;;;27.90;99.90;;;;;;5034314;28;19905;-57
2022/10/09 05:00:48;;;;;;;;;;;27.90;99.90;;;;;;5035036;28;20329;-57
2022/10/09 05:03:14;;;;;;;;;;;27.90;99.90;;;;;;5035158;28;19905;-58
2022/10/09 05:05:39;;;;;;;;;;;27.80;99.90;;;;;;5034951;28;19913;-58
2022/10/09 05:08:05;;;;;;;;;;;27.80;99.90;;;;;;5034698;28;20292;-58
2022/10/09 05:10:31;;;;;;;;;;;27.80;99.90;;;;;;5034621;28;19912;-58
2022/10/09 05:12:57;;;;;;;;;;;27.80;99.90;;;;;;5034779;28;19905;-58
2022/10/09 05:15:22;;;;;;;;;;;27.80;99.90;;;;;;5034624;28;20347;-58
2022/10/09 05:17:48;;;;;;;;;;;27.80;99.90;;;;;;5034564;28;19999;-58
2022/10/09 05:20:14;;;;;;;;;;;27.80;99.90;;;;;;5034422;28;19957;-58
2022/10/09 05:22:42;;;;;;;;;;;27.80;99.90;;;;;;5034379;28;19912;-58
2022/10/09 05:25:08;;;;;;;;;;;27.80;99.90;;;;;;5034620;28;20018;-60
2022/10/09 05:27:33;;;;;;;;;;;27.80;99.90;;;;;;5034390;28;19963;-58
2022/10/09 05:29:59;;;;;;;;;;;27.70;99.90;;;;;;5034379;28;19953;-58
2022/10/09 05:32:25;;;;;;;;;;;27.70;99.90;;;;;;5034214;28;20004;-59
2022/10/09 05:34:52;;;;;;;;;;;27.70;99.90;;;;;;5034444;28;19912;-58
2022/10/09 05:37:17;;;;;;;;;;;27.70;99.90;;;;;;5034353;28;19905;-58
2022/10/09 05:39:43;;;;;;;;;;;27.70;99.90;;;;;;5034190;28;19938;-59
2022/10/09 05:42:09;;;;;;;;;;;27.70;99.90;;;;;;5034044;28;19909;-59
2022/10/09 05:44:35;;;;;;;;;;;27.70;99.90;;;;;;5034144;28;20003;-58
2022/10/09 05:47:00;;;;;;;;;;;27.70;99.90;;;;;;5033952;28;19912;-58
2022/10/09 05:49:26;;;;;;;;;;;27.70;99.90;;;;;;5033974;28;19992;-60
2022/10/09 05:51:52;;;;;;;;;;;27.70;99.90;;;;;;5033874;28;19968;-61
2022/10/09 05:54:18;;;;;;;;;;;27.70;99.90;;;;;;5033994;28;20457;-59
2022/10/09 05:56:44;;;;;;;;;;;27.70;99.90;;;;;;5033879;28;19932;-58
2022/10/09 05:59:12;;;;;;;;;;;27.70;99.90;;;;;;5049040;28;19963;-58
2022/10/09 06:01:39;;;;;;;;;;;27.60;99.90;;;;;;5033734;28;19917;-58
2022/10/09 06:04:08;;;;;;;;;;;27.60;99.90;;;;;;5033942;28;19959;-58
2022/10/09 06:06:35;;;;;;;;;;;27.60;99.90;;;;;;5033630;28;19992;-57
2022/10/09 06:09:01;;;;;;;;;;;27.60;99.90;;;;;;5032957;28;19905;-59
2022/10/09 06:11:30;;;;;;;;;;;27.60;99.90;;;;;;5048934;28;19921;-60
2022/10/09 06:13:56;;;;;;;;;;;27.60;99.90;;;;;;5033630;28;20271;-60
2022/10/09 06:16:23;;;;;;;;;;;27.60;99.90;;;;;;5033674;28;20007;-59
2022/10/09 06:18:48;;;;;;;;;;;27.60;99.90;;;;;;5033627;28;20256;-60
2022/10/09 06:21:14;;;;;;;;;;;27.60;99.90;;;;;;5033637;28;19970;-60
2022/10/09 06:23:40;;;;;;;;;;;27.60;99.90;;;;;;5033406;28;19905;-59
2022/10/09 06:26:08;;;;;;;;;;;27.60;99.90;;;;;;5033371;28;20269;-59
2022/10/09 06:28:34;;;;;;;;;;;27.60;99.90;;;;;;5033367;28;19912;-59
2022/10/09 06:31:00;;;;;;;;;;;27.50;99.90;;;;;;5033083;28;19917;-60
2022/10/09 06:33:28;;;;;;;;;;;27.50;99.90;;;;;;5033211;28;19905;-59
2022/10/09 06:35:53;;;;;;;;;;;27.50;99.90;;;;;;5033656;28;20426;-58
2022/10/09 06:38:19;;;;;;;;;;;27.50;99.90;;;;;;5033114;28;19909;-58
2022/10/09 06:40:45;;;;;;;;;;;27.50;99.90;;;;;;5033043;28;19971;-58
2022/10/09 06:43:11;;;;;;;;;;;27.50;99.90;;;;;;5033068;28;19912;-59
2022/10/09 06:45:37;;;;;;;;;;;27.50;99.90;;;;;;5032952;28;19905;-58
2022/10/09 06:48:03;;;;;;;;;;;27.50;99.90;;;;;;5031670;28;19967;-58
2022/10/09 06:50:28;;;;;;;;;;;27.50;99.90;;;;;;5032764;28;19912;-58
2022/10/09 06:52:54;;;;;;;;;;;27.50;99.90;;;;;;5033009;28;19996;-59
2022/10/09 06:55:19;;;;;;;;;;;27.50;99.90;;;;;;5033002;28;20253;-59
2022/10/09 06:57:45;;;;;;;;;;;27.50;99.90;;;;;;5032603;28;19996;-58
2022/10/09 07:00:11;;;;;;;;;;;27.50;99.90;;;;;;5032457;28;19996;-59
2022/10/09 07:02:37;;;;;;;;;;;27.50;99.90;;;;;;5032803;28;20486;-59
2022/10/09 07:05:02;;;;;;;;;;;27.50;99.90;;;;;;5032651;28;19947;-59
2022/10/09 07:07:28;;;;;;;;;;;27.50;99.90;;;;;;5032523;28;20198;-59
2022/10/09 07:09:54;;;;;;;;;;;27.50;99.90;;;;;;5047953;28;20257;-58
2022/10/09 07:12:19;;;;;;;;;;;27.50;99.90;;;;;;5032312;28;19919;-58
2022/10/09 07:14:45;;;;;;;;;;;27.50;99.90;;;;;;5032517;28;19912;-59
2022/10/09 07:17:10;;;;;;;;;;;27.50;99.90;;;;;;5032394;28;19905;-58
2022/10/09 07:19:36;;;;;;;;;;;27.50;99.90;;;;;;5032328;28;19908;-59
2022/10/09 07:22:01;;;;;;;;;;;27.50;99.90;;;;;;5031425;28;19905;-58
2022/10/09 07:24:27;;;;;;;;;;;27.50;99.90;;;;;;5032239;28;19959;-58
2022/10/09 07:26:55;;;;;;;;;;;27.50;99.90;;;;;;5032413;28;19996;-58
2022/10/09 07:29:21;;;;;;;;;;;27.50;99.90;;;;;;5032122;28;19905;-59
2022/10/09 07:31:46;;;;;;;;;;;27.50;99.90;;;;;;5031972;28;20245;-59
2022/10/09 07:34:12;;;;;;;;;;;27.50;99.90;;;;;;5032008;28;19991;-58
2022/10/09 07:36:38;;;;;;;;;;;27.60;99.90;;;;;;5032032;28;19905;-59
2022/10/09 07:39:04;;;;;;;;;;;27.50;99.90;;;;;;5031882;28;20012;-58
2022/10/09 07:41:30;;;;;;;;;;;27.60;99.90;;;;;;5031936;28;19905;-59
2022/10/09 07:43:56;;;;;;;;;;;27.60;99.90;;;;;;5032185;28;20349;-58
2022/10/09 07:46:22;;;;;;;;;;;27.60;99.90;;;;;;5031995;28;19928;-59
2022/10/09 07:48:48;;;;;;;;;;;27.60;99.90;;;;;;5031859;28;20416;-60
2022/10/09 07:51:21;;;;;;;;;;;27.60;99.90;;;;;;5031882;28;20054;-58
2022/10/09 07:53:47;;;;;;;;;;;27.60;99.90;;;;;;5031971;28;19939;-58
2022/10/09 07:56:13;;;;;;;;;;;27.60;99.90;;;;;;5031935;28;19904;-58
2022/10/09 07:58:39;;;;;;;;;;;27.70;99.90;;;;;;5031801;28;19905;-59
2022/10/09 08:01:05;;;;;;;;;;;27.70;99.90;;;;;;5031664;28;19951;-58
2022/10/09 08:03:31;;;;;;;;;;;27.70;99.90;;;;;;5031815;28;20308;-58
2022/10/09 08:05:57;;;;;;;;;;;27.70;99.90;;;;;;5032378;28;19912;-59
2022/10/09 08:08:22;;;;;;;;;;;27.70;99.90;;;;;;5031992;28;19959;-59
2022/10/09 08:10:48;;;;;;;;;;;27.70;99.90;;;;;;5032012;28;19917;-58
2022/10/09 08:13:13;;;;;;;;;;;27.80;99.90;;;;;;5031969;28;19905;-58
2022/10/09 08:15:41;;;;;;;;;;;27.80;99.90;;;;;;5032038;28;20257;-58
2022/10/09 08:18:07;;;;;;;;;;;27.80;99.90;;;;;;5031710;28;19905;-59
2022/10/09 08:20:32;;;;;;;;;;;27.80;99.90;;;;;;5031597;28;19951;-57
2022/10/09 08:22:58;;;;;;;;;;;27.80;99.90;;;;;;5031786;28;20391;-58
2022/10/09 08:25:23;;;;;;;;;;;27.80;99.90;;;;;;5031637;28;20417;-58
2022/10/09 08:27:52;;;;;;;;;;;27.80;99.90;;;;;;5031409;28;19913;-59
2022/10/09 08:30:18;;;;;;;;;;;27.90;99.90;;;;;;5031651;28;19909;-59
2022/10/09 08:32:44;;;;;;;;;;;27.90;99.90;;;;;;5033299;28;19913;-59
2022/10/09 08:35:09;;;;;;;;;;;27.90;99.90;;;;;;5035370;28;20000;-58
2022/10/09 08:37:35;;;;;;;;;;;27.90;99.90;;;;;;5035304;28;19912;-59
2022/10/09 08:40:01;;;;;;;;;;;27.90;99.90;;;;;;5035362;28;19912;-59
2022/10/09 08:42:35;;;;;;;;;;;27.90;99.90;;;;;;5035360;28;20356;-59
2022/10/09 08:45:01;;;;;;;;;;;27.90;99.90;;;;;;5035379;28;19955;-59
2022/10/09 08:47:38;;;;;;;;;;;28.00;99.90;;;;;;5050614;28;20423;-59
2022/10/09 08:50:09;;;;;;;;;;;28.00;99.90;;;;;;5035109;28;19905;-59
2022/10/09 08:52:41;;;;;;;;;;;28.00;99.90;;;;;;5035185;28;20003;-59
2022/10/09 08:55:21;;;;;;;;;;;28.00;99.90;;;;;;5035037;28;19941;-59
2022/10/09 08:57:50;;;;;;;;;;;28.00;99.90;;;;;;5034908;28;19909;-58
2022/10/09 09:00:18;;;;;;;;;;;28.00;99.90;;;;;;5034662;28;19917;-59
2022/10/09 09:03:07;;;;;;;;;;;28.00;99.90;;;;;;5034850;28;19995;-59
2022/10/09 09:05:35;;;;;;;;;;;28.00;99.90;;;;;;5034735;28;20361;-59
2022/10/09 09:08:07;;;;;;;;;;;28.00;99.90;;;;;;5035034;28;19905;-60
2022/10/09 09:10:39;;;;;;;;;;;28.10;99.90;;;;;;5034691;28;19905;-59
2022/10/09 09:13:08;;;;;;;;;;;28.10;99.90;;;;;;5034647;28;19912;-60
2022/10/09 09:15:52;;;;;;;;;;;28.10;99.90;;;;;;5034714;28;19905;-58
2022/10/09 09:18:27;;;;;;;;;;;28.10;99.90;;;;;;5034587;28;19951;-59
2022/10/09 09:20:53;;;;;;;;;;;28.10;99.90;;;;;;5034541;28;20088;-58
2022/10/09 09:23:30;;;;;;;;;;;28.00;99.90;;;;;;5034475;28;20350;-57
2022/10/09 09:25:56;;;;;;;;;;;28.10;99.90;;;;;;5034489;28;19905;-58
2022/10/09 09:28:27;;;;;;;;;;;28.10;99.90;;;;;;5033076;28;19905;-58
2022/10/09 09:30:56;;;;;;;;;;;28.10;99.90;;;;;;5034263;28;20269;-58
2022/10/09 09:33:28;;;;;;;;;;;28.10;99.90;;;;;;5034339;28;19990;-59
2022/10/09 09:35:53;;;;;;;;;;;28.10;99.90;;;;;;5034229;28;20059;-58
2022/10/09 09:38:19;;;;;;;;;;;28.10;99.90;;;;;;5034303;28;20003;-59
2022/10/09 09:40:45;;;;;;;;;;;28.10;99.90;;;;;;5034208;28;20258;-58
2022/10/09 09:43:14;;;;;;;;;;;28.00;99.90;;;;;;5032198;28;20010;-58
2022/10/09 09:45:40;;;;;;;;;;;28.10;99.90;;;;;;5033750;28;19909;-58
2022/10/09 09:48:11;;;;;;;;;;;28.00;99.90;;;;;;5034227;28;19931;-59
2022/10/09 09:50:39;;;;;;;;;;;28.10;99.90;;;;;;5033881;28;19956;-58
2022/10/09 09:53:10;;;;;;;;;;;28.10;99.90;;;;;;5033917;28;19967;-58
2022/10/09 09:55:35;;;;;;;;;;;28.10;99.90;;;;;;5032616;28;20311;-58
2022/10/09 09:58:04;;;;;;;;;;;28.10;99.90;;;;;;5034148;28;19905;-59
2022/10/09 10:00:30;;;;;;;;;;;28.00;99.90;;;;;;5048993;28;19917;-59
2022/10/09 10:03:07;;;;;;;;;;;28.10;99.90;;;;;;5033819;28;19913;-58
2022/10/09 10:05:34;;;;;;;;;;;28.00;99.90;;;;;;5049460;28;20315;-59
2022/10/09 10:08:00;;;;;;;;;;;28.00;99.90;;;;;;5033834;28;19909;-59
2022/10/09 10:10:26;;;;;;;;;;;28.10;99.90;;;;;;5033829;28;19997;-58
2022/10/09 10:12:51;;;;;;;;;;;28.10;99.90;;;;;;5033533;28;20352;-59
2022/10/09 10:15:20;;;;;;;;;;;28.10;99.90;;;;;;5033622;28;19958;-58
2022/10/09 10:17:46;;;;;;;;;;;28.10;99.90;;;;;;5033485;28;19905;-60
2022/10/09 10:20:14;;;;;;;;;;;28.00;99.90;;;;;;5033421;28;20360;-58
2022/10/09 10:22:39;;;;;;;;;;;28.10;99.90;;;;;;5033586;28;19908;-59
2022/10/09 10:25:11;;;;;;;;;;;28.10;99.90;;;;;;5033524;28;20376;-58
2022/10/09 10:27:41;;;;;;;;;;;28.10;99.90;;;;;;5033324;28;19913;-59
2022/10/09 10:30:11;;;;;;;;;;;28.10;99.90;;;;;;5033383;28;19953;-59
2022/10/09 10:32:48;;;;;;;;;;;28.20;99.90;;;;;;5033205;28;19913;-60
2022/10/09 10:35:16;;;;;;;;;;;28.20;99.90;;;;;;5033187;28;19905;-58
2022/10/09 10:37:59;;;;;;;;;;;28.20;99.90;;;;;;5033006;28;19905;-59
2022/10/09 10:40:27;;;;;;;;;;;28.30;99.90;;;;;;5032981;28;19909;-59
2022/10/09 10:43:08;;;;;;;;;;;28.30;99.90;;;;;;5033128;28;19913;-59
2022/10/09 10:45:42;;;;;;;;;;;28.30;99.90;;;;;;5033138;28;19905;-59
2022/10/09 10:48:09;;;;;;;;;;;28.40;99.90;;;;;;5032920;28;19948;-60
2022/10/09 10:50:40;;;;;;;;;;;28.40;99.90;;;;;;5032953;28;20329;-60
2022/10/09 10:53:21;;;;;;;;;;;28.50;99.90;;;;;;5032882;28;20371;-60
2022/10/09 10:55:52;;;;;;;;;;;28.50;99.90;;;;;;5032597;28;19984;-59
2022/10/09 10:58:23;;;;;;;;;;;28.60;99.90;;;;;;5032659;28;19911;-60
2022/10/09 11:01:11;;;;;;;;;;;28.60;99.90;;;;;;5032509;28;20039;-59
2022/10/09 11:03:37;;;;;;;;;;;28.60;99.90;;;;;;5022341;28;19909;-59
2022/10/09 11:06:02;;;;;;;;;;;28.70;99.90;;;;;;5032544;28;19999;-59
2022/10/09 11:08:48;;;;;;;;;;;28.70;99.90;;;;;;5032382;28;20010;-59
2022/10/09 11:11:16;;;;;;;;;;;28.80;99.90;;;;;;5032484;28;19936;-59
2022/10/09 11:13:47;;;;;;;;;;;28.80;99.90;;;;;;5032354;28;19911;-58
2022/10/09 11:16:19;;;;;;;;;;;28.80;99.90;;;;;;5032366;28;19991;-59
2022/10/09 11:18:48;;;;;;;;;;;28.80;99.90;;;;;;5032413;28;19912;-59
2022/10/09 11:21:32;;;;;;;;;;;28.90;99.90;;;;;;5032312;28;19905;-58
2022/10/09 11:24:00;;;;;;;;;;;28.90;99.90;;;;;;5032292;28;19994;-59
2022/10/09 11:26:32;;;;;;;;;;;29.00;99.90;;;;;;5032213;28;20376;-58
2022/10/09 11:29:04;;;;;;;;;;;29.00;99.90;;;;;;5032067;28;19955;-58
2022/10/09 11:31:29;;;;;;;;;;;29.00;99.90;;;;;;5032202;28;20027;-58
2022/10/09 11:34:02;;;;;;;;;;;29.10;99.90;;;;;;5032023;28;19948;-58
2022/10/09 11:36:38;;;;;;;;;;;29.10;99.90;;;;;;5031903;28;19916;-58
2022/10/09 11:39:05;;;;;;;;;;;29.10;99.90;;;;;;5031864;28;20322;-59
2022/10/09 11:41:31;;;;;;;;;;;29.20;99.90;;;;;;5031857;28;20248;-58
2022/10/09 11:44:00;;;;;;;;;;;29.20;99.90;;;;;;5031889;28;20250;-58
2022/10/09 11:46:35;;;;;;;;;;;29.20;99.90;;;;;;5031874;28;19905;-57
2022/10/09 11:49:10;;;;;;;;;;;29.20;99.90;;;;;;5031969;28;19909;-59
2022/10/09 11:51:51;;;;;;;;;;;29.20;99.90;;;;;;5031930;28;19913;-58
2022/10/09 11:54:18;;;;;;;;;;;29.30;99.90;;;;;;5047080;28;20344;-58
2022/10/09 11:57:10;;;;;;;;;;;29.30;99.90;;;;;;5031625;28;19992;-58
2022/10/09 11:59:36;;;;;;;;;;;29.40;99.90;;;;;;5030176;28;19905;-59
2022/10/09 12:02:20;;;;;;;;;;;29.40;99.90;;;;;;5031854;28;20322;-58
2022/10/09 12:04:46;;;;;;;;;;;29.40;99.90;;;;;;5031593;28;20272;-58
2022/10/09 12:07:12;;;;;;;;;;;29.40;99.90;;;;;;5030920;28;19905;-59
2022/10/09 12:09:40;;;;;;;;;;;29.40;99.90;;;;;;5031658;28;19905;-58
2022/10/09 12:12:07;;;;;;;;;;;29.50;99.90;;;;;;5031285;28;19913;-59
2022/10/09 12:14:35;;;;;;;;;;;29.50;99.90;;;;;;5031498;28;20035;-60
2022/10/09 12:17:00;;;;;;;;;;;29.50;99.90;;;;;;5031390;28;19945;-59
2022/10/09 12:19:26;;;;;;;;;;;29.50;99.90;;;;;;5031472;28;20410;-59
2022/10/09 12:22:04;;;;;;;;;;;29.60;99.90;;;;;;5031343;28;19905;-58
2022/10/09 12:24:52;;;;;;;;;;;29.60;99.90;;;;;;5031293;28;19917;-58
2022/10/09 12:27:30;;;;;;;;;;;29.60;99.90;;;;;;5028274;28;19901;-58
2022/10/09 12:30:19;;;;;;;;;;;29.60;99.90;;;;;;5031385;28;19905;-58
2022/10/09 12:32:51;;;;;;;;;;;29.60;99.90;;;;;;5028174;28;19952;-58
2022/10/09 12:35:19;;;;;;;;;;;29.60;99.90;;;;;;5031129;28;20335;-58
2022/10/09 12:37:45;;;;;;;;;;;29.70;99.90;;;;;;5031385;28;19929;-58
2022/10/09 12:40:15;;;;;;;;;;;29.70;99.90;;;;;;5031401;28;20402;-58
2022/10/09 12:42:43;;;;;;;;;;;29.70;99.90;;;;;;5031411;28;19905;-59
2022/10/09 12:45:19;;;;;;;;;;;29.80;99.90;;;;;;5031390;28;20020;-58
2022/10/09 12:47:45;;;;;;;;;;;29.80;99.90;;;;;;5031249;28;20427;-59
2022/10/09 12:50:10;;;;;;;;;;;29.80;99.90;;;;;;5031398;28;19908;-59
2022/10/09 12:52:45;;;;;;;;;;;29.80;99.90;;;;;;5031010;28;19913;-59
2022/10/09 12:55:22;;;;;;;;;;;29.90;99.90;;;;;;5031591;28;19909;-59
2022/10/09 12:57:48;;;;;;;;;;;29.90;99.90;;;;;;5031186;28;20400;-58
2022/10/09 13:00:14;;;;;;;;;;;29.90;99.90;;;;;;5030978;28;19991;-59
2022/10/09 13:02:40;;;;;;;;;;;29.90;99.90;;;;;;5031327;28;20353;-59
2022/10/09 13:05:05;;;;;;;;;;;29.90;99.90;;;;;;5031125;28;19932;-60
2022/10/09 13:07:31;;;;;;;;;;;30.00;99.90;;;;;;5031026;28;19905;-58
2022/10/09 13:10:01;;;;;;;;;;;30.00;99.90;;;;;;5030998;28;19908;-58
2022/10/09 13:12:28;;;;;;;;;;;30.00;99.90;;;;;;5031066;28;19953;-59
2022/10/09 13:14:54;;;;;;;;;;;30.00;99.90;;;;;;5031258;28;19905;-58
2022/10/09 13:17:20;;;;;;;;;;;30.00;99.90;;;;;;5030914;28;19935;-58
2022/10/09 13:19:50;;;;;;;;;;;30.10;99.90;;;;;;5032817;28;20011;-59
2022/10/09 13:22:16;;;;;;;;;;;30.10;99.90;;;;;;5034519;28;19909;-58
2022/10/09 13:24:41;;;;;;;;;;;30.10;99.90;;;;;;5050006;28;20320;-58
2022/10/09 13:27:09;;;;;;;;;;;30.10;99.90;;;;;;5034401;28;19905;-58
2022/10/09 13:29:34;;;;;;;;;;;30.10;99.90;;;;;;5034318;28;19905;-58
2022/10/09 13:32:01;;;;;;;;;;;30.10;99.90;;;;;;5034287;28;20420;-59
2022/10/09 13:34:27;;;;;;;;;;;30.10;99.90;;;;;;5034297;28;20241;-58
2022/10/09 13:36:54;;;;;;;;;;;30.10;99.90;;;;;;5032956;28;19905;-58
2022/10/09 13:39:19;;;;;;;;;;;30.10;99.90;;;;;;5034212;28;19909;-58
2022/10/09 13:41:47;;;;;;;;;;;30.10;99.90;;;;;;5034285;28;20000;-58
2022/10/09 13:44:12;;;;;;;;;;;30.20;99.90;;;;;;5034365;28;20327;-58
2022/10/09 13:46:38;;;;;;;;;;;30.20;99.90;;;;;;5034081;28;19936;-61
2022/10/09 13:49:03;;;;;;;;;;;30.20;99.90;;;;;;5034168;28;19905;-59
2022/10/09 13:51:30;;;;;;;;;;;30.20;99.90;;;;;;5033832;28;19917;-59
2022/10/09 13:53:56;;;;;;;;;;;30.20;99.90;;;;;;5034002;28;19912;-59
2022/10/09 13:56:22;;;;;;;;;;;30.30;99.90;;;;;;5033883;28;20279;-59
2022/10/09 13:58:48;;;;;;;;;;;30.30;99.90;;;;;;5033834;28;20363;-58
2022/10/09 14:01:14;;;;;;;;;;;30.30;99.90;;;;;;5033845;28;19921;-58
2022/10/09 14:03:39;;;;;;;;;;;30.30;99.90;;;;;;5033834;28;19909;-59
2022/10/09 14:06:05;;;;;;;;;;;30.40;99.90;;;;;;5033621;28;20337;-58
2022/10/09 14:08:30;;;;;;;;;;;30.40;99.90;;;;;;5033537;28;19944;-58
2022/10/09 14:10:59;;;;;;;;;;;30.40;99.90;;;;;;5033538;28;19905;-58
2022/10/09 14:13:25;;;;;;;;;;;30.40;99.90;;;;;;5033527;28;19905;-58
2022/10/09 14:15:52;;;;;;;;;;;30.50;99.90;;;;;;5033494;28;19912;-58
2022/10/09 14:18:18;;;;;;;;;;;30.50;99.90;;;;;;5033681;28;20415;-58
2022/10/09 14:20:43;;;;;;;;;;;30.50;99.90;;;;;;5032406;28;19928;-57